Time;durP1;ratioP1;P1;durP2;ratioP2;P2;SDS_P1;SDS_P2;PMS_P1;PMS_P2;Temp;Humidity;BMP_temperature;BMP_pressure;BME280_temperature;BME280_humidity;BME280_pressure;Samples;Min_cycle;Max_cycle;Signal;HPM_P1;HPM_P2
2023/10/04 00:00:49;;;;;;;23.70;20.48;;;;;;;;;;5063719;28;20075;-61
2023/10/04 00:03:14;;;;;;;24.88;20.17;;;;;;;;;;5071995;28;21205;-61
2023/10/04 00:05:41;;;;;;;26.42;21.67;;;;;;;;;;5059136;28;20027;-61
2023/10/04 00:08:06;;;;;;;24.83;20.95;;;;;;;;;;5052011;28;20391;-61
2023/10/04 00:10:32;;;;;;;25.48;21.27;;;;;;;;;;5071323;28;20661;-61
2023/10/04 00:12:58;;;;;;;26.85;21.75;;;;;;;;;;5068930;28;20785;-61
2023/10/04 00:15:27;;;;;;;23.87;20.87;;;;;;;;;;5065786;28;20108;-61
2023/10/04 00:17:52;;;;;;;22.98;20.48;;;;;;;;;;5067480;28;20550;-58
2023/10/04 00:20:21;;;;;;;25.40;21.08;;;;;;;;;;5069481;28;20024;-61
2023/10/04 00:22:47;;;;;;;24.05;21.00;;;;;;;;;;5065114;28;20074;-61
2023/10/04 00:25:23;;;;;;;24.58;20.55;;;;;;;;;;5069234;28;20551;-61
2023/10/04 00:27:56;;;;;;;24.70;20.00;;;;;;;;;;5065688;28;20280;-61
2023/10/04 00:30:22;;;;;;;27.58;19.77;;;;;;;;;;5060973;28;20085;-61
2023/10/04 00:32:49;;;;;;;24.40;19.60;;;;;;;;;;5052591;28;20028;-61
2023/10/04 00:35:17;;;;;;;24.60;20.30;;;;;;;;;;5059674;28;20012;-60
2023/10/04 00:37:47;;;;;;;23.35;19.95;;;;;;;;;;5065252;28;20539;-61
2023/10/04 00:40:18;;;;;;;23.23;19.25;;;;;;;;;;5072671;28;20015;-61
2023/10/04 00:42:51;;;;;;;21.85;19.33;;;;;;;;;;5054649;28;20126;-61
2023/10/04 00:45:16;;;;;;;23.27;19.52;;;;;;;;;;5050432;28;20842;-61
2023/10/04 00:47:47;;;;;;;22.85;18.42;;;;;;;;;;5070403;28;20047;-61
2023/10/04 00:50:16;;;;;;;24.40;19.02;;;;;;;;;;5066901;28;20203;-61
2023/10/04 00:52:47;;;;;;;25.70;20.33;;;;;;;;;;5071423;28;20073;-61
2023/10/04 00:55:22;;;;;;;23.92;19.10;;;;;;;;;;5062674;28;20011;-61
2023/10/04 00:57:49;;;;;;;22.13;19.23;;;;;;;;;;5058952;28;20097;-61
2023/10/04 01:00:14;;;;;;;24.70;18.58;;;;;;;;;;5070348;28;20713;-60
2023/10/04 01:02:40;;;;;;;28.00;19.65;;;;;;;;;;5087088;27;20036;-61
2023/10/04 01:05:06;;;;;;;22.75;18.60;;;;;;;;;;5066111;28;20016;-61
2023/10/04 01:07:31;;;;;;;25.10;19.00;;;;;;;;;;5051477;28;20016;-61
2023/10/04 01:09:58;;;;;;;23.65;19.63;;;;;;;;;;5053772;28;20030;-61
2023/10/04 01:12:24;;;;;;;21.25;18.90;;;;;;;;;;5065156;28;20033;-62
2023/10/04 01:14:53;;;;;;;22.85;19.55;;;;;;;;;;5062817;28;20479;-61
2023/10/04 01:17:21;;;;;;;23.05;19.42;;;;;;;;;;5054475;28;20115;-59
2023/10/04 01:19:48;;;;;;;21.73;18.63;;;;;;;;;;5071736;28;20450;-61
2023/10/04 01:22:13;;;;;;;24.00;18.60;;;;;;;;;;5064361;28;20036;-64
2023/10/04 01:24:41;;;;;;;26.97;19.23;;;;;;;;;;5069111;28;20366;-61
2023/10/04 01:27:12;;;;;;;24.92;18.65;;;;;;;;;;5067503;28;20246;-61
2023/10/04 01:29:38;;;;;;;22.95;18.70;;;;;;;;;;5067464;28;20031;-60
2023/10/04 01:32:05;;;;;;;24.35;18.33;;;;;;;;;;5066196;28;20107;-59
2023/10/04 01:34:30;;;;;;;25.38;19.55;;;;;;;;;;5071980;28;20016;-59
2023/10/04 01:36:55;;;;;;;22.63;18.10;;;;;;;;;;5071636;28;20700;-61
2023/10/04 01:39:22;;;;;;;22.77;18.47;;;;;;;;;;5070278;28;20255;-60
2023/10/04 01:41:48;;;;;;;23.98;18.50;;;;;;;;;;5060043;28;20290;-61
2023/10/04 01:44:16;;;;;;;23.38;19.48;;;;;;;;;;5070459;28;20016;-61
2023/10/04 01:46:42;;;;;;;24.80;19.55;;;;;;;;;;5075433;28;20035;-61
2023/10/04 01:49:07;;;;;;;26.00;19.00;;;;;;;;;;5067032;28;20040;-63
2023/10/04 01:51:33;;;;;;;23.73;19.93;;;;;;;;;;5057023;28;20540;-61
2023/10/04 01:53:59;;;;;;;22.95;19.17;;;;;;;;;;5067705;28;20242;-61
2023/10/04 01:56:25;;;;;;;24.55;18.92;;;;;;;;;;5041582;28;20472;-61
2023/10/04 01:58:51;;;;;;;25.23;19.95;;;;;;;;;;5056281;28;20027;-60
2023/10/04 02:01:19;;;;;;;25.15;19.63;;;;;;;;;;5053898;28;20031;-61
2023/10/04 02:03:44;;;;;;;25.40;20.88;;;;;;;;;;5067805;28;20020;-60
2023/10/04 02:06:09;;;;;;;24.55;19.65;;;;;;;;;;5054457;28;20050;-61
2023/10/04 02:08:35;;;;;;;24.95;20.70;;;;;;;;;;5057295;28;20498;-61
2023/10/04 02:11:03;;;;;;;23.83;20.17;;;;;;;;;;5066364;28;20048;-61
2023/10/04 02:13:28;;;;;;;26.98;20.08;;;;;;;;;;5066736;28;20262;-62
2023/10/04 02:15:54;;;;;;;25.17;19.20;;;;;;;;;;5066021;28;20012;-61
2023/10/04 02:18:20;;;;;;;26.15;19.73;;;;;;;;;;5056378;28;20016;-61
2023/10/04 02:20:53;;;;;;;23.38;19.33;;;;;;;;;;5067200;28;20598;-61
2023/10/04 02:23:21;;;;;;;25.23;19.02;;;;;;;;;;5073122;28;20109;-62
2023/10/04 02:25:48;;;;;;;24.95;20.42;;;;;;;;;;5071896;28;20081;-61
2023/10/04 02:28:23;;;;;;;24.95;20.52;;;;;;;;;;5055230;28;20127;-61
2023/10/04 02:30:48;;;;;;;29.38;20.80;;;;;;;;;;5065368;28;20019;-61
2023/10/04 02:33:17;;;;;;;26.50;20.98;;;;;;;;;;5042841;28;20683;-61
2023/10/04 02:35:44;;;;;;;24.48;20.60;;;;;;;;;;5063784;28;20490;-61
2023/10/04 02:38:16;;;;;;;24.00;19.80;;;;;;;;;;5067965;28;20013;-61
2023/10/04 02:40:45;;;;;;;23.65;20.05;;;;;;;;;;5076744;28;20434;-61
2023/10/04 02:43:15;;;;;;;23.60;20.65;;;;;;;;;;5051954;28;20842;-61
2023/10/04 02:45:41;;;;;;;;;;;;;;;;;;5055890;28;20015;-61
2023/10/04 02:48:09;;;;;;;24.98;19.83;;;;;;;;;;5051026;28;19957;-61
2023/10/04 02:50:41;;;;;;;24.02;19.30;;;;;;;;;;5070135;28;20229;-61
2023/10/04 02:53:09;;;;;;;26.67;19.92;;;;;;;;;;5072557;28;20022;-61
2023/10/04 02:55:39;;;;;;;22.58;19.67;;;;;;;;;;5075304;28;20019;-61
2023/10/04 02:58:06;;;;;;;22.65;19.70;;;;;;;;;;5056245;28;20040;-61
2023/10/04 03:00:33;;;;;;;28.67;21.38;;;;;;;;;;5067713;28;20443;-60
2023/10/04 03:02:58;;;;;;;25.95;21.52;;;;;;;;;;5084197;28;20020;-61
2023/10/04 03:05:28;;;;;;;26.60;21.60;;;;;;;;;;5070973;28;20039;-60
2023/10/04 03:07:54;;;;;;;26.83;21.08;;;;;;;;;;5066666;28;20028;-61
2023/10/04 03:10:25;;;;;;;26.88;21.23;;;;;;;;;;5071643;28;20051;-61
2023/10/04 03:12:52;;;;;;;25.73;21.63;;;;;;;;;;5053966;28;20069;-61
2023/10/04 03:15:22;;;;;;;27.00;21.30;;;;;;;;;;5045658;28;20036;-61
2023/10/04 03:17:47;;;;;;;24.95;21.58;;;;;;;;;;5053812;28;20020;-61
2023/10/04 03:20:20;;;;;;;29.65;22.70;;;;;;;;;;5077693;28;20781;-61
2023/10/04 03:22:48;;;;;;;27.88;22.67;;;;;;;;;;5073473;28;20028;-61
2023/10/04 03:25:15;;;;;;;26.35;22.38;;;;;;;;;;5066079;28;20512;-61
2023/10/04 03:27:43;;;;;;;29.83;21.52;;;;;;;;;;5070077;28;20095;-60
2023/10/04 03:30:12;;;;;;;26.80;21.30;;;;;;;;;;5071949;28;20012;-61
2023/10/04 03:32:37;;;;;;;28.83;21.45;;;;;;;;;;5072727;28;20016;-61
2023/10/04 03:35:06;;;;;;;25.30;21.65;;;;;;;;;;5061496;28;20039;-60
2023/10/04 03:37:38;;;;;;;29.27;21.27;;;;;;;;;;5057473;28;20301;-62
2023/10/04 03:40:06;;;;;;;25.65;21.38;;;;;;;;;;5072091;28;20020;-61
2023/10/04 03:42:33;;;;;;;25.52;21.63;;;;;;;;;;5053581;28;20020;-61
2023/10/04 03:44:58;;;;;;;26.88;21.08;;;;;;;;;;5056502;28;20016;-61
2023/10/04 03:47:26;;;;;;;25.55;20.98;;;;;;;;;;5070452;28;20107;-61
2023/10/04 03:49:54;;;;;;;27.33;20.27;;;;;;;;;;5067663;28;20491;-62
2023/10/04 03:52:21;;;;;;;25.35;21.38;;;;;;;;;;5046229;28;20028;-61
2023/10/04 03:54:46;;;;;;;27.95;20.80;;;;;;;;;;5046957;28;20016;-61
2023/10/04 03:57:14;;;;;;;25.23;20.38;;;;;;;;;;5078397;28;20658;-61
2023/10/04 03:59:44;;;;;;;26.95;20.52;;;;;;;;;;5056820;28;20027;-61
2023/10/04 04:02:12;;;;;;;24.85;19.83;;;;;;;;;;5076158;28;20025;-61
2023/10/04 04:04:38;;;;;;;28.60;21.45;;;;;;;;;;5055979;28;20016;-61
2023/10/04 04:07:04;;;;;;;27.50;20.92;;;;;;;;;;5070684;28;20027;-61
2023/10/04 04:09:32;;;;;;;26.05;21.67;;;;;;;;;;5066839;28;20012;-61
2023/10/04 04:11:58;;;;;;;25.75;20.33;;;;;;;;;;5068712;28;20016;-61
2023/10/04 04:14:23;;;;;;;26.20;21.13;;;;;;;;;;5070267;28;20024;-61
2023/10/04 04:16:51;;;;;;;29.20;21.30;;;;;;;;;;5060655;28;20285;-61
2023/10/04 04:19:22;;;;;;;25.45;21.05;;;;;;;;;;5062025;28;20024;-62
2023/10/04 04:21:49;;;;;;;26.85;21.08;;;;;;;;;;5069991;28;20026;-61
2023/10/04 04:24:14;;;;;;;27.58;21.35;;;;;;;;;;5057857;28;20467;-61
2023/10/04 04:26:41;;;;;;;29.07;22.47;;;;;;;;;;5074353;28;20018;-61
2023/10/04 04:29:09;;;;;;;29.30;23.52;;;;;;;;;;5050874;28;20024;-61
2023/10/04 04:31:35;;;;;;;30.20;22.67;;;;;;;;;;5063394;28;20787;-61
2023/10/04 04:34:03;;;;;;;28.92;22.67;;;;;;;;;;5074009;28;20019;-60
2023/10/04 04:36:32;;;;;;;27.87;22.50;;;;;;;;;;5055373;28;20130;-61
2023/10/04 04:39:04;;;;;;;31.70;23.10;;;;;;;;;;5073978;28;20156;-61
2023/10/04 04:41:33;;;;;;;29.15;22.88;;;;;;;;;;5071882;28;20034;-61
2023/10/04 04:44:07;;;;;;;30.15;23.15;;;;;;;;;;5072839;28;21314;-61
2023/10/04 04:46:34;;;;;;;28.52;22.70;;;;;;;;;;5073545;28;20020;-61
2023/10/04 04:49:02;;;;;;;30.92;23.13;;;;;;;;;;5056479;28;20774;-61
2023/10/04 04:51:28;;;;;;;30.15;22.27;;;;;;;;;;5072907;28;20004;-61
2023/10/04 04:53:53;;;;;;;26.17;21.07;;;;;;;;;;5067780;28;20082;-61
2023/10/04 04:56:21;;;;;;;25.70;20.27;;;;;;;;;;5055626;28;20028;-61
2023/10/04 04:58:47;;;;;;;25.13;19.83;;;;;;;;;;5070901;28;20048;-61
2023/10/04 05:01:14;;;;;;;25.88;20.70;;;;;;;;;;5052768;28;20167;-61
2023/10/04 05:03:42;;;;;;;24.23;19.98;;;;;;;;;;5057915;28;20059;-61
2023/10/04 05:06:13;;;;;;;23.77;19.17;;;;;;;;;;5062738;28;20116;-61
2023/10/04 05:08:38;;;;;;;24.95;19.10;;;;;;;;;;5058597;28;20027;-61
2023/10/04 05:11:09;;;;;;;27.42;19.08;;;;;;;;;;5059137;28;20116;-61
2023/10/04 05:13:35;;;;;;;23.42;18.80;;;;;;;;;;5057667;28;20168;-61
2023/10/04 05:16:04;;;;;;;23.58;18.95;;;;;;;;;;5058670;28;20393;-61
2023/10/04 05:18:29;;;;;;;25.15;17.83;;;;;;;;;;5051430;28;20406;-61
2023/10/04 05:20:57;;;;;;;23.63;16.20;;;;;;;;;;5069098;28;20055;-61
2023/10/04 05:23:25;;;;;;;21.48;16.40;;;;;;;;;;5048059;28;20040;-61
2023/10/04 05:25:52;;;;;;;21.00;16.23;;;;;;;;;;5064539;28;20352;-61
2023/10/04 05:28:20;;;;;;;20.10;15.73;;;;;;;;;;5060806;28;20023;-61
2023/10/04 05:30:46;;;;;;;21.55;16.85;;;;;;;;;;5084506;28;20034;-61
2023/10/04 05:33:13;;;;;;;19.80;15.38;;;;;;;;;;5047446;28;20728;-61
2023/10/04 05:35:40;;;;;;;20.80;14.35;;;;;;;;;;5070551;28;20020;-61
2023/10/04 05:38:05;;;;;;;17.17;13.98;;;;;;;;;;5059749;28;20528;-61
2023/10/04 05:40:38;;;;;;;21.52;13.75;;;;;;;;;;5063576;28;20036;-60
2023/10/04 05:43:04;;;;;;;18.35;13.68;;;;;;;;;;5064305;28;20509;-61
2023/10/04 05:45:29;;;;;;;19.70;14.88;;;;;;;;;;5051616;28;20016;-61
2023/10/04 05:47:55;;;;;;;21.10;14.17;;;;;;;;;;5070730;28;20016;-61
2023/10/04 05:50:21;;;;;;;21.40;15.02;;;;;;;;;;5051148;28;20287;-61
2023/10/04 05:52:53;;;;;;;34.58;16.70;;;;;;;;;;5064510;28;20077;-61
2023/10/04 05:55:22;;;;;;;32.15;16.63;;;;;;;;;;5047600;28;20036;-61
2023/10/04 05:57:50;;;;;;;31.20;17.60;;;;;;;;;;5051916;28;20101;-62
2023/10/04 06:00:30;;;;;;;28.40;15.93;;;;;;;;;;5054591;28;20077;-61
2023/10/04 06:03:01;;;;;;;29.00;17.00;;;;;;;;;;5046466;28;20024;-61
2023/10/04 06:05:31;;;;;;;33.25;17.17;;;;;;;;;;5067974;28;20023;-60
2023/10/04 06:07:56;;;;;;;28.10;16.88;;;;;;;;;;5071771;28;20790;-60
2023/10/04 06:10:24;;;;;;;36.22;17.75;;;;;;;;;;5069997;28;20021;-59
2023/10/04 06:12:53;;;;;;;30.38;16.80;;;;;;;;;;5074801;28;20020;-61
2023/10/04 06:15:24;;;;;;;28.05;16.98;;;;;;;;;;5054830;28;20035;-60
2023/10/04 06:17:50;;;;;;;27.27;17.45;;;;;;;;;;5074310;28;20436;-61
2023/10/04 06:20:28;;;;;;;24.10;17.55;;;;;;;;;;5071018;28;20028;-61
2023/10/04 06:23:00;;;;;;;25.08;16.83;;;;;;;;;;5065801;28;20024;-58
2023/10/04 06:25:31;;;;;;;28.52;17.58;;;;;;;;;;5066181;28;20027;-61
2023/10/04 06:27:59;;;;;;;29.92;16.92;;;;;;;;;;5070683;28;20012;-59
2023/10/04 06:30:26;;;;;;;27.15;17.67;;;;;;;;;;5049992;28;20865;-60
2023/10/04 06:32:59;;;;;;;23.30;17.90;;;;;;;;;;5057451;28;20016;-62
2023/10/04 06:35:27;;;;;;;27.27;18.13;;;;;;;;;;5068184;28;20024;-60
2023/10/04 06:37:53;;;;;;;38.13;17.60;;;;;;;;;;5055758;28;20103;-61
2023/10/04 06:40:25;;;;;;;29.83;17.77;;;;;;;;;;5054956;28;20772;-61
2023/10/04 06:42:51;;;;;;;34.65;17.52;;;;;;;;;;5066823;28;20778;-61
2023/10/04 06:45:22;;;;;;;36.38;17.65;;;;;;;;;;5060061;28;20081;-61
2023/10/04 06:47:49;;;;;;;31.20;17.00;;;;;;;;;;5057543;28;20098;-61
2023/10/04 06:50:17;;;;;;;36.78;17.35;;;;;;;;;;5072059;28;20688;-61
2023/10/04 06:52:45;;;;;;;32.47;15.70;;;;;;;;;;5094518;28;20039;-61
2023/10/04 06:55:11;;;;;;;31.55;15.48;;;;;;;;;;5085452;28;20040;-59
2023/10/04 06:57:37;;;;;;;28.90;15.27;;;;;;;;;;5070857;28;20054;-60
2023/10/04 07:00:12;;;;;;;24.00;15.40;;;;;;;;;;5082443;28;20884;-61
2023/10/04 07:02:40;;;;;;;30.13;15.30;;;;;;;;;;5064873;28;20135;-61
2023/10/04 07:05:05;;;;;;;23.83;15.38;;;;;;;;;;5076644;28;20022;-63
2023/10/04 07:07:33;;;;;;;20.35;14.70;;;;;;;;;;5066105;28;20007;-62
2023/10/04 07:09:58;;;;;;;23.83;15.85;;;;;;;;;;5092237;27;20019;-62
2023/10/04 07:12:24;;;;;;;21.57;15.07;;;;;;;;;;5087807;28;20008;-60
2023/10/04 07:14:51;;;;;;;23.05;15.15;;;;;;;;;;5080250;27;20031;-61
2023/10/04 07:17:19;;;;;;;27.90;14.60;;;;;;;;;;5084495;28;20074;-61
2023/10/04 07:19:44;;;;;;;20.30;14.75;;;;;;;;;;5070337;28;20032;-62
2023/10/04 07:22:09;;;;;;;20.40;14.93;;;;;;;;;;5087770;28;20031;-61
2023/10/04 07:24:37;;;;;;;22.80;14.37;;;;;;;;;;5070897;28;20981;-61
2023/10/04 07:27:02;;;;;;;21.33;14.93;;;;;;;;;;5085325;27;20345;-60
2023/10/04 07:29:30;;;;;;;20.67;15.90;;;;;;;;;;5085300;28;20023;-59
2023/10/04 07:31:56;;;;;;;18.05;15.00;;;;;;;;;;5088166;27;20028;-61
2023/10/04 07:34:23;;;;;;;17.35;13.98;;;;;;;;;;5083925;27;20015;-63
2023/10/04 07:36:51;;;;;;;17.98;13.82;;;;;;;;;;5091779;28;20023;-61
2023/10/04 07:39:16;;;;;;;20.30;14.52;;;;;;;;;;5086343;27;20045;-61
2023/10/04 07:41:41;;;;;;;19.50;14.23;;;;;;;;;;5086197;27;20031;-60
2023/10/04 07:44:09;;;;;;;20.43;14.50;;;;;;;;;;5075103;28;20261;-61
2023/10/04 07:46:37;;;;;;;25.90;14.75;;;;;;;;;;5083308;28;20242;-62
2023/10/04 07:49:03;;;;;;;24.33;15.17;;;;;;;;;;5081647;28;20037;-61
2023/10/04 07:51:33;;;;;;;21.67;14.13;;;;;;;;;;5052324;28;20129;-61
2023/10/04 07:54:00;;;;;;;23.50;15.13;;;;;;;;;;5062373;28;20637;-61
2023/10/04 07:56:26;;;;;;;24.27;14.77;;;;;;;;;;5062846;28;20058;-60
2023/10/04 07:58:52;;;;;;;21.70;14.88;;;;;;;;;;5067852;28;20541;-62
2023/10/04 08:01:18;;;;;;;25.17;14.57;;;;;;;;;;5062430;28;20666;-62
2023/10/04 08:03:45;;;;;;;26.15;15.20;;;;;;;;;;5075805;28;20297;-61
2023/10/04 08:06:11;;;;;;;24.25;14.98;;;;;;;;;;5052958;28;20038;-62
2023/10/04 08:08:41;;;;;;;22.58;14.93;;;;;;;;;;5053328;28;20093;-62
2023/10/04 08:11:12;;;;;;;22.33;14.65;;;;;;;;;;5070744;28;20031;-61
2023/10/04 08:13:44;;;;;;;23.30;15.27;;;;;;;;;;5076616;28;20028;-61
2023/10/04 08:16:10;;;;;;;21.95;15.70;;;;;;;;;;5065142;28;20009;-62
2023/10/04 08:18:36;;;;;;;21.38;15.77;;;;;;;;;;5050039;28;20097;-61
2023/10/04 08:21:06;;;;;;;21.77;15.37;;;;;;;;;;5068367;28;20031;-59
2023/10/04 08:23:32;;;;;;;23.92;15.55;;;;;;;;;;5069304;28;20285;-62
2023/10/04 08:25:58;;;;;;;25.05;14.77;;;;;;;;;;5050277;28;20409;-64
2023/10/04 08:28:25;;;;;;;22.85;14.93;;;;;;;;;;5074191;28;20027;-62
2023/10/04 08:30:51;;;;;;;21.15;15.18;;;;;;;;;;5067860;28;20040;-62
2023/10/04 08:33:19;;;;;;;20.80;15.70;;;;;;;;;;5073660;28;20099;-62
2023/10/04 08:35:45;;;;;;;22.38;15.00;;;;;;;;;;5055220;28;20744;-63
2023/10/04 08:38:10;;;;;;;22.35;14.90;;;;;;;;;;5077351;28;20103;-62
2023/10/04 08:40:38;;;;;;;21.95;14.63;;;;;;;;;;5070231;28;20016;-61
2023/10/04 08:43:04;;;;;;;23.73;14.82;;;;;;;;;;5063606;28;20468;-61
2023/10/04 08:45:29;;;;;;;20.83;13.63;;;;;;;;;;5064203;28;20730;-62
2023/10/04 08:47:58;;;;;;;24.23;14.48;;;;;;;;;;5044994;28;20013;-61
2023/10/04 08:50:26;;;;;;;17.40;14.10;;;;;;;;;;5072003;28;20041;-60
2023/10/04 08:52:53;;;;;;;20.88;15.57;;;;;;;;;;5048518;28;20023;-61
2023/10/04 08:55:22;;;;;;;21.23;14.73;;;;;;;;;;5066017;28;20704;-61
2023/10/04 08:57:48;;;;;;;18.40;14.57;;;;;;;;;;5067965;28;20015;-61
2023/10/04 09:00:14;;;;;;;20.55;14.10;;;;;;;;;;5070398;28;20020;-61
2023/10/04 09:02:47;;;;;;;17.67;13.50;;;;;;;;;;5059484;28;20046;-60
2023/10/04 09:05:15;;;;;;;16.73;13.05;;;;;;;;;;5071576;28;20113;-59
2023/10/04 09:07:40;;;;;;;18.25;13.52;;;;;;;;;;5052995;28;20012;-61
2023/10/04 09:10:08;;;;;;;20.60;13.20;;;;;;;;;;5055857;28;20028;-62
2023/10/04 09:12:33;;;;;;;22.90;14.48;;;;;;;;;;5063714;28;20127;-61
2023/10/04 09:14:58;;;;;;;18.67;13.57;;;;;;;;;;5071059;28;20050;-61
2023/10/04 09:17:25;;;;;;;19.58;14.02;;;;;;;;;;5071375;28;20247;-61
2023/10/04 09:19:50;;;;;;;23.25;14.77;;;;;;;;;;5071573;28;20496;-61
2023/10/04 09:22:18;;;;;;;18.60;13.40;;;;;;;;;;5077359;28;20033;-62
2023/10/04 09:24:55;;;;;;;21.52;15.10;;;;;;;;;;5055031;28;20297;-61
2023/10/04 09:27:21;;;;;;;18.48;13.57;;;;;;;;;;5070280;28;20481;-61
2023/10/04 09:29:48;;;;;;;20.77;13.35;;;;;;;;;;5071803;28;20023;-60
2023/10/04 09:32:14;;;;;;;16.88;13.70;;;;;;;;;;5074094;28;20012;-61
2023/10/04 09:34:41;;;;;;;18.85;14.02;;;;;;;;;;5067927;28;20756;-61
2023/10/04 09:37:19;;;;;;;19.27;14.50;;;;;;;;;;5066699;28;20012;-61
2023/10/04 09:39:46;;;;;;;19.67;14.18;;;;;;;;;;5066347;28;20035;-61
2023/10/04 09:42:14;;;;;;;18.77;13.95;;;;;;;;;;5068655;28;20078;-62
2023/10/04 09:44:42;;;;;;;20.88;14.68;;;;;;;;;;5075585;28;20073;-61
2023/10/04 09:47:09;;;;;;;22.73;15.48;;;;;;;;;;5060808;28;20017;-61
2023/10/04 09:49:36;;;;;;;18.80;13.70;;;;;;;;;;5069675;28;20043;-61
2023/10/04 09:52:14;;;;;;;20.10;14.75;;;;;;;;;;5073910;28;20028;-62
2023/10/04 09:54:40;;;;;;;21.33;15.80;;;;;;;;;;5092395;28;20031;-61
2023/10/04 09:57:12;;;;;;;19.95;13.90;;;;;;;;;;5086881;27;20024;-62
2023/10/04 09:59:37;;;;;;;20.77;14.30;;;;;;;;;;5085504;28;20019;-61
2023/10/04 10:02:05;;;;;;;17.92;13.93;;;;;;;;;;5089495;27;20039;-61
2023/10/04 10:04:33;;;;;;;18.10;14.35;;;;;;;;;;5091751;28;20306;-61
2023/10/04 10:07:09;;;;;;;19.10;13.03;;;;;;;;;;5068178;28;20824;-61
2023/10/04 10:09:35;;;;;;;18.13;13.48;;;;;;;;;;5083935;28;20833;-60
2023/10/04 10:12:02;;;;;;;19.67;14.13;;;;;;;;;;5088293;27;20034;-61
2023/10/04 10:14:28;;;;;;;20.48;13.80;;;;;;;;;;5087149;28;20012;-60
2023/10/04 10:16:57;;;;;;;18.45;13.40;;;;;;;;;;5092159;28;20776;-61
2023/10/04 10:19:26;;;;;;;22.70;16.13;;;;;;;;;;5091705;27;20027;-61
2023/10/04 10:22:18;;;;;;;30.77;20.30;;;;;;;;;;5089756;27;20599;-61
2023/10/04 10:25:10;;;;;;;25.80;19.70;;;;;;;;;;5092157;28;20011;-61
2023/10/04 10:27:38;;;;;;;26.52;20.13;;;;;;;;;;5083754;28;20071;-61
2023/10/04 10:30:12;;;;;;;26.98;21.15;;;;;;;;;;5087920;27;20016;-60
2023/10/04 10:32:51;;;;;;;27.42;22.20;;;;;;;;;;5089928;27;20023;-61
2023/10/04 10:35:36;;;;;;;32.33;23.20;;;;;;;;;;5090853;27;20024;-59
2023/10/04 10:38:20;;;;;;;31.00;23.65;;;;;;;;;;5089817;28;20110;-61
2023/10/04 10:40:48;;;;;;;26.92;21.17;;;;;;;;;;5091543;27;20031;-61
2023/10/04 10:43:14;;;;;;;24.67;19.38;;;;;;;;;;5091658;28;20034;-61
2023/10/04 10:45:41;;;;;;;24.38;19.13;;;;;;;;;;5086819;27;20901;-60
2023/10/04 10:48:08;;;;;;;29.13;22.45;;;;;;;;;;5090342;28;20024;-61
2023/10/04 10:50:37;;;;;;;29.27;23.77;;;;;;;;;;5067472;28;20391;-60
2023/10/04 10:53:04;;;;;;;35.72;28.88;;;;;;;;;;5067533;28;20723;-61
2023/10/04 10:55:29;;;;;;;37.08;27.75;;;;;;;;;;5069430;28;20161;-61
2023/10/04 10:57:57;;;;;;;34.88;27.45;;;;;;;;;;5070305;28;20028;-61
2023/10/04 11:00:23;;;;;;;37.38;30.30;;;;;;;;;;5048472;28;20032;-61
2023/10/04 11:02:53;;;;;;;40.65;30.65;;;;;;;;;;5067821;28;20024;-61
2023/10/04 11:05:20;;;;;;;33.78;28.63;;;;;;;;;;5065247;28;20028;-61
2023/10/04 11:07:46;;;;;;;34.13;28.17;;;;;;;;;;5045087;28;20013;-61
2023/10/04 11:10:13;;;;;;;33.25;28.25;;;;;;;;;;5071474;28;20460;-61
2023/10/04 11:12:42;;;;;;;34.63;26.90;;;;;;;;;;5059396;28;20423;-59
2023/10/04 11:15:07;;;;;;;39.55;28.23;;;;;;;;;;5060541;28;20059;-63
2023/10/04 11:17:35;;;;;;;36.63;28.58;;;;;;;;;;5070295;28;20471;-62
2023/10/04 11:20:04;;;;;;;35.03;29.00;;;;;;;;;;5071850;28;20099;-61
2023/10/04 11:22:29;;;;;;;37.50;27.95;;;;;;;;;;5049757;28;20642;-61
2023/10/04 11:24:55;;;;;;;33.40;26.27;;;;;;;;;;5069481;28;20098;-61
2023/10/04 11:27:23;;;;;;;34.45;29.95;;;;;;;;;;5055689;28;20699;-62
2023/10/04 11:29:49;;;;;;;37.35;30.65;;;;;;;;;;5072249;28;20012;-61
2023/10/04 11:32:14;;;;;;;38.75;29.73;;;;;;;;;;5069894;28;20032;-61
2023/10/04 11:34:42;;;;;;;33.35;29.48;;;;;;;;;;5049280;28;20013;-59
2023/10/04 11:37:08;;;;;;;36.67;29.85;;;;;;;;;;5066917;28;20657;-61
2023/10/04 11:39:33;;;;;;;34.70;29.90;;;;;;;;;;5064392;28;20049;-61
2023/10/04 11:42:02;;;;;;;34.88;29.33;;;;;;;;;;5067343;28;20024;-61
2023/10/04 11:44:28;;;;;;;35.63;30.20;;;;;;;;;;5068952;28;20024;-60
2023/10/04 11:46:58;;;;;;;36.85;29.60;;;;;;;;;;5054822;28;20096;-61
2023/10/04 11:49:24;;;;;;;34.90;28.08;;;;;;;;;;5065684;28;20192;-60
2023/10/04 11:51:53;;;;;;;39.38;29.48;;;;;;;;;;5056777;28;20274;-64
2023/10/04 11:54:18;;;;;;;;;;;;;;;;;;5044607;28;20034;-64
2023/10/04 11:56:44;;;;;;;34.30;27.50;;;;;;;;;;5053213;28;19916;-61
2023/10/04 11:59:09;;;;;;;36.42;30.13;;;;;;;;;;5063506;28;20059;-64
2023/10/04 12:01:47;;;;;;;38.25;30.33;;;;;;;;;;5045490;28;20020;-64
2023/10/04 12:04:16;;;;;;;35.38;28.92;;;;;;;;;;5050597;28;20020;-63
2023/10/04 12:06:44;;;;;;;38.30;30.05;;;;;;;;;;5064095;28;20048;-64
2023/10/04 12:09:11;;;;;;;37.60;29.40;;;;;;;;;;5075358;28;20665;-63
2023/10/04 12:11:37;;;;;;;36.13;30.05;;;;;;;;;;5066137;28;20265;-64
2023/10/04 12:14:04;;;;;;;38.47;31.42;;;;;;;;;;5066998;28;20027;-63
2023/10/04 12:16:32;;;;;;;38.38;30.75;;;;;;;;;;5050736;28;20932;-63
2023/10/04 12:18:58;;;;;;;35.72;30.50;;;;;;;;;;5067570;28;20020;-63
2023/10/04 12:21:23;;;;;;;39.22;31.27;;;;;;;;;;5072196;28;20081;-62
2023/10/04 12:23:51;;;;;;;40.30;31.80;;;;;;;;;;5072737;28;20028;-63
2023/10/04 12:26:20;;;;;;;39.67;31.02;;;;;;;;;;5067942;28;20094;-65
2023/10/04 12:28:48;;;;;;;35.15;28.98;;;;;;;;;;5053194;28;20020;-63
2023/10/04 12:31:13;;;;;;;34.45;29.85;;;;;;;;;;5075886;28;20015;-64
2023/10/04 12:33:38;;;;;;;36.30;28.50;;;;;;;;;;5067913;28;20020;-63
2023/10/04 12:36:07;;;;;;;37.03;29.23;;;;;;;;;;5070284;28;20028;-63
2023/10/04 12:38:32;;;;;;;40.92;30.90;;;;;;;;;;5052042;28;20149;-63
2023/10/04 12:41:00;;;;;;;35.83;29.10;;;;;;;;;;5044442;28;20016;-63
2023/10/04 12:43:25;;;;;;;38.78;29.95;;;;;;;;;;5076310;28;20032;-63
2023/10/04 12:45:54;;;;;;;34.63;28.30;;;;;;;;;;5069765;28;20106;-62
2023/10/04 12:48:22;;;;;;;38.40;29.27;;;;;;;;;;5076830;28;20020;-63
2023/10/04 12:50:51;;;;;;;34.05;28.23;;;;;;;;;;5048992;28;20025;-63
2023/10/04 12:53:16;;;;;;;34.30;28.40;;;;;;;;;;5068935;28;20046;-63
2023/10/04 12:55:42;;;;;;;33.70;27.98;;;;;;;;;;5066389;28;20273;-63
2023/10/04 12:58:08;;;;;;;33.83;28.13;;;;;;;;;;5071715;28;20783;-63
2023/10/04 13:00:33;;;;;;;32.90;27.88;;;;;;;;;;5062019;28;20031;-64
2023/10/04 13:03:00;;;;;;;35.92;27.05;;;;;;;;;;5054381;28;20064;-63
2023/10/04 13:05:26;;;;;;;32.97;27.45;;;;;;;;;;5073962;28;20027;-63
2023/10/04 13:07:52;;;;;;;33.75;27.50;;;;;;;;;;5049493;28;20125;-63
2023/10/04 13:10:17;;;;;;;32.28;27.92;;;;;;;;;;5054827;28;20648;-63
2023/10/04 13:12:42;;;;;;;35.33;27.60;;;;;;;;;;5052029;28;20685;-63
2023/10/04 13:15:08;;;;;;;34.63;27.67;;;;;;;;;;5066911;28;20020;-63
2023/10/04 13:17:36;;;;;;;37.22;28.10;;;;;;;;;;5050807;28;20069;-63
2023/10/04 13:20:17;;;;;;;34.42;26.52;;;;;;;;;;5059743;28;20016;-61
2023/10/04 13:22:43;;;;;;;32.50;27.33;;;;;;;;;;5055420;28;20845;-62
2023/10/04 13:25:09;;;;;;;33.33;27.52;;;;;;;;;;5043188;28;20024;-61
2023/10/04 13:27:36;;;;;;;32.85;26.15;;;;;;;;;;5040166;28;20020;-62
2023/10/04 13:30:05;;;;;;;32.58;26.63;;;;;;;;;;5054486;28;20490;-62
2023/10/04 13:32:31;;;;;;;36.22;28.67;;;;;;;;;;5056340;28;20625;-60
2023/10/04 13:34:57;;;;;;;39.25;27.67;;;;;;;;;;5037991;28;20589;-60
2023/10/04 13:37:25;;;;;;;33.03;27.45;;;;;;;;;;5038024;28;20024;-61
2023/10/04 13:39:50;;;;;;;36.70;27.95;;;;;;;;;;5054659;28;20032;-61
2023/10/04 13:42:17;;;;;;;33.27;27.63;;;;;;;;;;5056052;28;20029;-61
2023/10/04 13:44:43;;;;;;;33.13;27.95;;;;;;;;;;5054526;28;20336;-61
2023/10/04 13:47:11;;;;;;;34.55;27.85;;;;;;;;;;5055387;28;20009;-61
2023/10/04 13:49:37;;;;;;;32.22;26.75;;;;;;;;;;5054550;28;20048;-61
2023/10/04 13:52:02;;;;;;;31.00;26.05;;;;;;;;;;5054448;28;20024;-61
2023/10/04 13:54:33;;;;;;;32.42;26.60;;;;;;;;;;5044032;28;20029;-62
2023/10/04 13:57:05;;;;;;;32.95;26.95;;;;;;;;;;5054706;28;20860;-61
2023/10/04 13:59:30;;;;;;;31.90;25.98;;;;;;;;;;5047724;28;20020;-60
2023/10/04 14:01:56;;;;;;;34.70;28.23;;;;;;;;;;5055505;28;20025;-61
2023/10/04 14:04:22;;;;;;;32.83;27.60;;;;;;;;;;5041444;28;20024;-61
2023/10/04 14:06:47;;;;;;;35.15;26.92;;;;;;;;;;5042401;28;20273;-61
2023/10/04 14:09:21;;;;;;;33.90;28.23;;;;;;;;;;5056458;28;20020;-62
2023/10/04 14:11:46;;;;;;;35.20;28.55;;;;;;;;;;5056198;28;20841;-61
2023/10/04 14:14:14;;;;;;;33.80;27.20;;;;;;;;;;5052646;28;20043;-60
2023/10/04 14:16:41;;;;;;;29.90;26.63;;;;;;;;;;5054539;28;20016;-61
2023/10/04 14:19:10;;;;;;;32.28;26.35;;;;;;;;;;5054967;28;20021;-59
2023/10/04 14:21:35;;;;;;;30.60;25.77;;;;;;;;;;5051862;28;20373;-63